Time;durP1;ratioP1;P1;durP2;ratioP2;P2;SDS_P1;SDS_P2;PMS_P1;PMS_P2;Temp;Humidity;BMP_temperature;BMP_pressure;BME280_temperature;BME280_humidity;BME280_pressure;Samples;Min_cycle;Max_cycle;Signal;HPM_P1;HPM_P2
2021/03/15 00:01:20;;;;;;;3.00;1.02;;;;;;;;;;6264635;28;20136;-71
2021/03/15 00:04:21;;;;;;;5.03;1.45;;;;;;;;;;6262961;28;20135;-76
2021/03/15 00:07:22;;;;;;;7.80;1.50;;;;;;;;;;6270568;28;20047;-71
2021/03/15 00:10:23;;;;;;;3.22;1.20;;;;;;;;;;6268218;28;20231;-73
2021/03/15 00:13:25;;;;;;;8.75;1.15;;;;;;;;;;6267611;28;20135;-71
2021/03/15 00:16:27;;;;;;;5.63;1.20;;;;;;;;;;6265802;28;20099;-70
2021/03/15 00:19:28;;;;;;;1.92;1.10;;;;;;;;;;6264838;28;20156;-71
2021/03/15 00:22:29;;;;;;;2.88;1.13;;;;;;;;;;6266194;28;20472;-71
2021/03/15 00:25:30;;;;;;;3.33;1.15;;;;;;;;;;6265639;28;20169;-71
2021/03/15 00:28:31;;;;;;;5.95;1.40;;;;;;;;;;6268875;28;20120;-71
2021/03/15 00:31:33;;;;;;;5.38;1.30;;;;;;;;;;6263376;28;20111;-72
2021/03/15 00:34:34;;;;;;;3.67;1.10;;;;;;;;;;6262560;28;20049;-71
2021/03/15 00:37:35;;;;;;;6.15;1.55;;;;;;;;;;6262573;28;20135;-69
2021/03/15 00:40:37;;;;;;;5.28;1.15;;;;;;;;;;6262313;28;20421;-69
2021/03/15 00:43:38;;;;;;;6.18;1.35;;;;;;;;;;6261635;28;20187;-69
2021/03/15 00:46:40;;;;;;;2.80;1.08;;;;;;;;;;6260712;28;20132;-71
2021/03/15 00:49:41;;;;;;;3.22;1.40;;;;;;;;;;6263073;28;20056;-73
2021/03/15 00:52:42;;;;;;;40.55;21.40;;;;;;;;;;6264411;28;20421;-70
2021/03/15 00:55:43;;;;;;;15.82;6.00;;;;;;;;;;6262712;28;20502;-70
2021/03/15 00:58:44;;;;;;;23.77;11.13;;;;;;;;;;6266707;28;20163;-72
2021/03/15 01:01:46;;;;;;;107.63;44.78;;;;;;;;;;6264129;28;20135;-69
2021/03/15 01:04:50;;;;;;;29.05;14.57;;;;;;;;;;6266193;28;20045;-73
2021/03/15 01:07:51;;;;;;;5.55;1.75;;;;;;;;;;6257675;28;20403;-73
2021/03/15 01:10:53;;;;;;;5.80;1.27;;;;;;;;;;6263803;28;20685;-70
2021/03/15 01:13:54;;;;;;;3.97;1.50;;;;;;;;;;6257423;28;20444;-70
2021/03/15 01:16:56;;;;;;;3.42;1.33;;;;;;;;;;6261639;28;20050;-71
2021/03/15 01:19:57;;;;;;;5.18;1.48;;;;;;;;;;6262665;28;20048;-71
2021/03/15 01:22:58;;;;;;;5.28;1.55;;;;;;;;;;6259260;28;20045;-75
2021/03/15 01:25:59;;;;;;;6.03;1.55;;;;;;;;;;6265808;28;20626;-74
2021/03/15 01:29:00;;;;;;;4.10;1.70;;;;;;;;;;6260278;28;20461;-74
2021/03/15 01:32:02;;;;;;;7.63;1.75;;;;;;;;;;6261905;28;20077;-71
2021/03/15 01:35:04;;;;;;;6.95;1.50;;;;;;;;;;6267003;28;20049;-71
2021/03/15 01:38:06;;;;;;;4.85;1.73;;;;;;;;;;6266975;28;20547;-71
2021/03/15 01:41:08;;;;;;;2.63;1.50;;;;;;;;;;6245815;28;20127;-71
2021/03/15 01:44:09;;;;;;;3.03;1.48;;;;;;;;;;6261338;28;20524;-71
2021/03/15 01:47:11;;;;;;;3.63;1.80;;;;;;;;;;6262947;28;20135;-71
2021/03/15 01:50:14;;;;;;;3.22;1.60;;;;;;;;;;6263027;28;20069;-71
2021/03/15 01:53:17;;;;;;;2.55;1.10;;;;;;;;;;6261224;28;20140;-72
2021/03/15 01:56:18;;;;;;;2.47;1.48;;;;;;;;;;6263104;28;20592;-71
2021/03/15 01:59:20;;;;;;;2.60;1.48;;;;;;;;;;6263469;28;20501;-72
2021/03/15 02:02:22;;;;;;;3.95;1.50;;;;;;;;;;6264522;28;20182;-71
2021/03/15 02:05:24;;;;;;;2.50;1.30;;;;;;;;;;6262928;28;20494;-73
2021/03/15 02:08:25;;;;;;;2.60;1.20;;;;;;;;;;6260953;28;20152;-72
2021/03/15 02:11:35;;;;;;;2.88;1.45;;;;;;;;;;6264991;28;20099;-73
2021/03/15 02:14:45;;;;;;;4.97;1.38;;;;;;;;;;6264030;28;20049;-72
2021/03/15 02:17:59;;;;;;;2.35;1.10;;;;;;;;;;6258091;28;20060;-72
2021/03/15 02:21:26;;;;;;;2.90;0.93;;;;;;;;;;6264743;28;20048;-72
2021/03/15 02:24:34;;;;;;;1.30;0.95;;;;;;;;;;6259749;28;20125;-73
2021/03/15 02:28:12;;;;;;;2.08;1.10;;;;;;;;;;6265943;28;20041;-71
2021/03/15 02:31:32;;;;;;;1.90;0.80;;;;;;;;;;6248444;28;20052;-73
2021/03/15 02:34:52;;;;;;;2.17;0.95;;;;;;;;;;6262824;28;20079;-70
2021/03/15 02:37:56;;;;;;;4.38;1.08;;;;;;;;;;6263175;28;20486;-72
2021/03/15 02:40:59;;;;;;;5.93;1.25;;;;;;;;;;6264792;28;20055;-71
2021/03/15 02:44:04;;;;;;;5.47;1.17;;;;;;;;;;6261872;28;20060;-71
2021/03/15 02:47:07;;;;;;;;;;;;;;;;;;6264041;28;20091;-71
2021/03/15 02:50:11;;;;;;;1.83;0.93;;;;;;;;;;6266027;28;19947;-72
2021/03/15 02:53:15;;;;;;;1.73;0.90;;;;;;;;;;6264602;28;20124;-71
2021/03/15 02:56:19;;;;;;;2.08;0.90;;;;;;;;;;6264018;28;20107;-70
2021/03/15 02:59:21;;;;;;;1.88;1.00;;;;;;;;;;6264704;28;20507;-71
2021/03/15 03:02:23;;;;;;;2.72;0.80;;;;;;;;;;6251865;28;20040;-71
2021/03/15 03:05:25;;;;;;;3.00;0.98;;;;;;;;;;6267476;28;20574;-73
2021/03/15 03:08:26;;;;;;;1.38;0.70;;;;;;;;;;6262880;28;20124;-75
2021/03/15 03:11:28;;;;;;;1.80;0.90;;;;;;;;;;6261174;28;20555;-71
2021/03/15 03:14:29;;;;;;;5.03;0.88;;;;;;;;;;6257801;28;20182;-72
2021/03/15 03:17:31;;;;;;;1.85;0.80;;;;;;;;;;6265896;28;20120;-73
2021/03/15 03:20:33;;;;;;;1.25;0.80;;;;;;;;;;6262111;28;20902;-71
2021/03/15 03:23:36;;;;;;;2.38;0.70;;;;;;;;;;6261283;28;20514;-71
2021/03/15 03:26:38;;;;;;;2.50;0.95;;;;;;;;;;6244534;28;20071;-71
2021/03/15 03:29:39;;;;;;;1.35;0.68;;;;;;;;;;6287568;28;20131;-70
2021/03/15 03:32:42;;;;;;;2.38;0.60;;;;;;;;;;6297594;28;20066;-72
2021/03/15 03:35:44;;;;;;;4.03;0.55;;;;;;;;;;6291183;28;20044;-72
2021/03/15 03:38:46;;;;;;;2.38;0.80;;;;;;;;;;6294016;28;20139;-75
2021/03/15 03:41:47;;;;;;;1.30;0.60;;;;;;;;;;6293703;28;20685;-71
2021/03/15 03:44:48;;;;;;;1.08;0.70;;;;;;;;;;6292555;28;20087;-71
2021/03/15 03:47:49;;;;;;;1.75;0.70;;;;;;;;;;6287902;28;20127;-71
2021/03/15 03:50:51;;;;;;;0.80;0.50;;;;;;;;;;6289662;28;20158;-71
2021/03/15 03:53:54;;;;;;;0.93;0.60;;;;;;;;;;6289958;28;20139;-71
2021/03/15 03:56:59;;;;;;;2.20;0.60;;;;;;;;;;6289930;28;20514;-75
2021/03/15 04:00:07;;;;;;;0.77;0.60;;;;;;;;;;6284954;28;20049;-72
2021/03/15 04:03:14;;;;;;;1.35;0.75;;;;;;;;;;6288541;28;20238;-71
2021/03/15 04:06:16;;;;;;;2.13;0.90;;;;;;;;;;6287760;28;20063;-72
2021/03/15 04:09:25;;;;;;;1.67;0.70;;;;;;;;;;6292287;28;20128;-70
2021/03/15 04:12:27;;;;;;;1.27;0.60;;;;;;;;;;6291952;28;20045;-71
2021/03/15 04:15:29;;;;;;;1.83;1.00;;;;;;;;;;6290425;28;20127;-74
2021/03/15 04:18:32;;;;;;;1.83;0.55;;;;;;;;;;6288357;28;20132;-72
2021/03/15 04:21:35;;;;;;;1.20;0.70;;;;;;;;;;6291601;28;20070;-70
2021/03/15 04:24:39;;;;;;;1.85;0.50;;;;;;;;;;6284199;28;20052;-70
2021/03/15 04:27:42;;;;;;;0.90;0.55;;;;;;;;;;6291054;28;20054;-70
2021/03/15 04:30:44;;;;;;;0.83;0.70;;;;;;;;;;6288069;28;20075;-71
2021/03/15 04:33:45;;;;;;;1.17;0.47;;;;;;;;;;6285112;28;20152;-70
2021/03/15 04:36:49;;;;;;;1.33;0.57;;;;;;;;;;6282997;28;20516;-72
2021/03/15 04:39:50;;;;;;;2.38;1.10;;;;;;;;;;6293217;28;20045;-72
2021/03/15 04:42:52;;;;;;;1.98;0.60;;;;;;;;;;6291102;28;20079;-72
2021/03/15 04:45:53;;;;;;;1.48;0.60;;;;;;;;;;6286586;28;20049;-69
2021/03/15 04:48:54;;;;;;;2.80;0.65;;;;;;;;;;6287116;28;20140;-73
2021/03/15 04:51:56;;;;;;;0.93;0.80;;;;;;;;;;6285936;28;20167;-69
2021/03/15 04:54:57;;;;;;;1.25;0.60;;;;;;;;;;6288870;28;20078;-70
2021/03/15 04:58:03;;;;;;;2.60;0.75;;;;;;;;;;6290837;28;20040;-69
2021/03/15 05:01:06;;;;;;;1.40;0.85;;;;;;;;;;6288738;28;20123;-70
2021/03/15 05:04:10;;;;;;;2.53;0.77;;;;;;;;;;6289959;28;20044;-70
2021/03/15 05:07:12;;;;;;;0.98;0.50;;;;;;;;;;6293414;28;20091;-70
2021/03/15 05:10:14;;;;;;;3.30;0.77;;;;;;;;;;6292414;28;20576;-70
2021/03/15 05:13:16;;;;;;;1.02;0.50;;;;;;;;;;6289320;28;20044;-69
2021/03/15 05:16:17;;;;;;;1.75;0.68;;;;;;;;;;6290157;28;20078;-70
2021/03/15 05:19:19;;;;;;;1.48;0.93;;;;;;;;;;6287074;28;20783;-69
2021/03/15 05:22:21;;;;;;;3.75;0.90;;;;;;;;;;6287343;28;20450;-72
2021/03/15 05:25:23;;;;;;;0.82;0.60;;;;;;;;;;6288875;28;20586;-73
2021/03/15 05:28:24;;;;;;;3.20;0.70;;;;;;;;;;6285020;28;20120;-69
2021/03/15 05:31:26;;;;;;;4.43;0.98;;;;;;;;;;6272591;28;20124;-72
2021/03/15 05:34:28;;;;;;;5.80;0.82;;;;;;;;;;6287851;28;20075;-72
2021/03/15 05:37:30;;;;;;;3.50;0.80;;;;;;;;;;6285075;28;20132;-72
2021/03/15 05:40:31;;;;;;;2.67;0.70;;;;;;;;;;6284100;28;20095;-72
2021/03/15 05:43:42;;;;;;;4.93;0.65;;;;;;;;;;6287066;28;20135;-69
2021/03/15 05:46:58;;;;;;;3.47;0.57;;;;;;;;;;6283527;28;20523;-74
2021/03/15 05:50:19;;;;;;;2.85;0.73;;;;;;;;;;6283301;28;20045;-69
2021/03/15 05:53:36;;;;;;;2.33;0.75;;;;;;;;;;6278438;28;20135;-69
2021/03/15 05:56:52;;;;;;;1.98;0.60;;;;;;;;;;6283425;28;20124;-70
2021/03/15 06:00:04;;;;;;;6.10;0.80;;;;;;;;;;6287465;28;20068;-69
2021/03/15 06:03:21;;;;;;;4.55;1.13;;;;;;;;;;6288953;28;20473;-70
2021/03/15 06:06:22;;;;;;;5.25;0.80;;;;;;;;;;6285173;28;20055;-70
2021/03/15 06:09:29;;;;;;;8.52;1.00;;;;;;;;;;6285673;28;20080;-72
2021/03/15 06:12:38;;;;;;;3.05;0.70;;;;;;;;;;6285086;28;20052;-70
2021/03/15 06:15:40;;;;;;;1.83;0.80;;;;;;;;;;6295677;28;20060;-70
2021/03/15 06:18:42;;;;;;;2.72;0.60;;;;;;;;;;6283592;28;20505;-69
2021/03/15 06:21:43;;;;;;;2.00;0.98;;;;;;;;;;6283307;28;20057;-70
2021/03/15 06:24:45;;;;;;;2.63;0.93;;;;;;;;;;6287996;28;20180;-72
2021/03/15 06:27:47;;;;;;;1.42;0.70;;;;;;;;;;6281058;28;20079;-71
2021/03/15 06:30:50;;;;;;;3.63;0.82;;;;;;;;;;6288732;28;20140;-70
2021/03/15 06:33:51;;;;;;;3.08;0.85;;;;;;;;;;6286991;28;20052;-70
2021/03/15 06:36:53;;;;;;;3.55;1.05;;;;;;;;;;6292704;28;20041;-70
2021/03/15 06:39:55;;;;;;;5.10;0.70;;;;;;;;;;6290124;28;20045;-69
2021/03/15 06:42:57;;;;;;;2.20;0.88;;;;;;;;;;6285318;28;20139;-73
2021/03/15 06:45:59;;;;;;;3.33;0.70;;;;;;;;;;6284956;28;20131;-70
2021/03/15 06:49:00;;;;;;;2.17;0.90;;;;;;;;;;6290199;28;20080;-72
2021/03/15 06:52:06;;;;;;;2.38;0.73;;;;;;;;;;6289170;28;22476;-70
2021/03/15 06:55:09;;;;;;;2.22;0.60;;;;;;;;;;6284632;28;20135;-69
2021/03/15 06:58:22;;;;;;;3.83;0.93;;;;;;;;;;6287760;28;21013;-72
2021/03/15 07:01:25;;;;;;;3.17;1.13;;;;;;;;;;6286774;28;20075;-70
2021/03/15 07:04:26;;;;;;;3.38;0.98;;;;;;;;;;6285754;28;20487;-76
2021/03/15 07:07:28;;;;;;;1.70;0.88;;;;;;;;;;6290524;28;20179;-72
2021/03/15 07:10:32;;;;;;;5.97;1.23;;;;;;;;;;6296325;28;20056;-71
2021/03/15 07:13:37;;;;;;;3.83;1.10;;;;;;;;;;6294023;28;20048;-70
2021/03/15 07:16:38;;;;;;;7.00;1.50;;;;;;;;;;6297038;28;20062;-70
2021/03/15 07:19:43;;;;;;;4.90;1.20;;;;;;;;;;6292053;28;20143;-72
2021/03/15 07:22:46;;;;;;;4.68;1.00;;;;;;;;;;6291850;28;20143;-69
2021/03/15 07:25:47;;;;;;;3.08;1.00;;;;;;;;;;6294673;28;20441;-71
2021/03/15 07:28:50;;;;;;;3.15;1.17;;;;;;;;;;6293316;28;20079;-72
2021/03/15 07:31:51;;;;;;;4.88;1.05;;;;;;;;;;6293274;28;20544;-70
2021/03/15 07:34:52;;;;;;;3.00;0.90;;;;;;;;;;6293805;28;20077;-70
2021/03/15 07:37:53;;;;;;;3.42;1.15;;;;;;;;;;6295943;28;20384;-71
2021/03/15 07:40:55;;;;;;;4.68;0.90;;;;;;;;;;6289629;28;20123;-71
2021/03/15 07:43:56;;;;;;;4.50;1.50;;;;;;;;;;6287547;28;20044;-72
2021/03/15 07:46:59;;;;;;;3.38;1.27;;;;;;;;;;6290659;28;20109;-70
2021/03/15 07:50:00;;;;;;;5.72;1.30;;;;;;;;;;6291728;28;20048;-72
2021/03/15 07:53:02;;;;;;;0.95;0.73;;;;;;;;;;6297404;28;20062;-70
2021/03/15 07:56:06;;;;;;;1.67;1.00;;;;;;;;;;6284419;28;20491;-76
2021/03/15 07:59:07;;;;;;;2.75;0.82;;;;;;;;;;6288094;28;20122;-71
2021/03/15 08:02:14;;;;;;;4.93;1.40;;;;;;;;;;6286832;28;20179;-73
2021/03/15 08:05:16;;;;;;;5.35;1.38;;;;;;;;;;6292000;28;20052;-71
2021/03/15 08:08:17;;;;;;;7.10;1.55;;;;;;;;;;6288077;28;20131;-73
2021/03/15 08:11:19;;;;;;;8.65;1.50;;;;;;;;;;6292302;28;20055;-72
2021/03/15 08:14:22;;;;;;;5.50;1.70;;;;;;;;;;6296303;28;20127;-74
2021/03/15 08:17:24;;;;;;;9.93;1.73;;;;;;;;;;6289861;28;20040;-78
2021/03/15 08:20:26;;;;;;;6.13;1.83;;;;;;;;;;6293622;28;20071;-73
2021/03/15 08:23:29;;;;;;;5.47;1.38;;;;;;;;;;6295873;28;20079;-74
2021/03/15 08:26:32;;;;;;;5.22;1.65;;;;;;;;;;6295101;28;20509;-74
2021/03/15 08:29:38;;;;;;;3.97;1.40;;;;;;;;;;6293742;28;20044;-73
2021/03/15 08:32:40;;;;;;;5.15;1.13;;;;;;;;;;6293977;28;20044;-75
2021/03/15 08:35:42;;;;;;;3.13;1.23;;;;;;;;;;6297151;28;20054;-73
2021/03/15 08:38:44;;;;;;;4.00;1.08;;;;;;;;;;6291740;28;20051;-73
2021/03/15 08:41:46;;;;;;;4.38;1.38;;;;;;;;;;6293705;28;20079;-74
2021/03/15 08:44:48;;;;;;;2.72;1.15;;;;;;;;;;6293186;28;20090;-74
2021/03/15 08:47:53;;;;;;;5.97;1.40;;;;;;;;;;6291285;28;20103;-75
2021/03/15 08:50:57;;;;;;;4.10;1.30;;;;;;;;;;6296248;28;20040;-75
2021/03/15 08:53:59;;;;;;;9.80;1.17;;;;;;;;;;6292539;28;20044;-75
2021/03/15 08:57:01;;;;;;;2.30;1.13;;;;;;;;;;6296892;28;20132;-74
2021/03/15 09:00:35;;;;;;;7.00;1.10;;;;;;;;;;6289023;28;20058;-74
2021/03/15 09:03:49;;;;;;;4.13;1.42;;;;;;;;;;6287710;28;20086;-76
2021/03/15 09:06:50;;;;;;;4.75;1.23;;;;;;;;;;6281604;28;20048;-74
2021/03/15 09:09:51;;;;;;;4.03;1.20;;;;;;;;;;6288684;28;20121;-75
2021/03/15 09:13:29;;;;;;;3.25;0.75;;;;;;;;;;6286525;28;20067;-74
2021/03/15 09:16:30;;;;;;;3.30;1.77;;;;;;;;;;6279294;28;20048;-75
2021/03/15 09:19:32;;;;;;;3.90;0.98;;;;;;;;;;6292243;28;20053;-74
2021/03/15 09:22:34;;;;;;;2.83;0.80;;;;;;;;;;6291622;28;20036;-77
2021/03/15 09:25:35;;;;;;;3.78;1.23;;;;;;;;;;6293799;28;20156;-74
2021/03/15 09:28:38;;;;;;;3.53;1.00;;;;;;;;;;6293661;28;20497;-74
2021/03/15 09:31:39;;;;;;;1.58;1.10;;;;;;;;;;6296163;28;20143;-74
2021/03/15 09:34:40;;;;;;;1.90;1.10;;;;;;;;;;6291811;28;20135;-74
2021/03/15 09:37:45;;;;;;;2.85;1.02;;;;;;;;;;6294848;28;20072;-72
2021/03/15 09:40:49;;;;;;;3.38;1.10;;;;;;;;;;6276801;28;20127;-75
2021/03/15 09:43:52;;;;;;;10.05;1.10;;;;;;;;;;6290798;28;20049;-77
2021/03/15 09:46:53;;;;;;;3.15;1.20;;;;;;;;;;6293689;28;20075;-75
2021/03/15 09:49:54;;;;;;;2.67;1.00;;;;;;;;;;6293623;28;20076;-75
2021/03/15 09:53:06;;;;;;;4.05;1.10;;;;;;;;;;6292302;28;20037;-70
2021/03/15 09:56:09;;;;;;;2.38;0.73;;;;;;;;;;6291929;28;20064;-72
2021/03/15 09:59:11;;;;;;;6.57;0.77;;;;;;;;;;6292177;28;20127;-79
2021/03/15 10:02:14;;;;;;;4.30;0.80;;;;;;;;;;6293246;28;20497;-72
2021/03/15 10:05:18;;;;;;;3.75;0.70;;;;;;;;;;6293924;28;20112;-73
2021/03/15 10:08:19;;;;;;;4.43;0.80;;;;;;;;;;6294513;28;20154;-73
2021/03/15 10:11:21;;;;;;;1.10;0.60;;;;;;;;;;6293386;28;20144;-74
2021/03/15 10:14:24;;;;;;;0.85;0.60;;;;;;;;;;6292762;28;20128;-73
2021/03/15 10:17:25;;;;;;;2.75;0.60;;;;;;;;;;6290566;28;20041;-72
2021/03/15 10:20:29;;;;;;;3.03;0.38;;;;;;;;;;6292185;28;20048;-72
2021/03/15 10:23:32;;;;;;;2.83;0.50;;;;;;;;;;6293632;28;20114;-72
2021/03/15 10:26:33;;;;;;;1.48;0.45;;;;;;;;;;6291892;28;20131;-72
2021/03/15 10:29:35;;;;;;;4.13;0.80;;;;;;;;;;6295884;28;20131;-79
2021/03/15 10:32:37;;;;;;;1.75;0.60;;;;;;;;;;6295223;28;20499;-74
2021/03/15 10:35:39;;;;;;;4.97;0.82;;;;;;;;;;6294057;28;20471;-72
2021/03/15 10:38:40;;;;;;;2.28;0.65;;;;;;;;;;6293088;28;20049;-73
2021/03/15 10:41:41;;;;;;;1.63;0.60;;;;;;;;;;6290839;28;20037;-72
2021/03/15 10:44:44;;;;;;;2.85;0.50;;;;;;;;;;6287049;28;20487;-73
2021/03/15 10:47:45;;;;;;;9.02;0.80;;;;;;;;;;6289144;28;20585;-73
2021/03/15 10:50:47;;;;;;;8.38;0.68;;;;;;;;;;6293048;28;20048;-73
2021/03/15 10:53:49;;;;;;;3.00;0.40;;;;;;;;;;6292591;28;20040;-74
2021/03/15 10:57:08;;;;;;;0.80;0.43;;;;;;;;;;6289452;28;20080;-74
2021/03/15 11:00:24;;;;;;;2.13;0.22;;;;;;;;;;6288232;28;20056;-73
2021/03/15 11:03:27;;;;;;;3.28;0.40;;;;;;;;;;6288844;28;20131;-82
2021/03/15 11:06:29;;;;;;;0.90;0.45;;;;;;;;;;6288119;28;20166;-74
2021/03/15 11:09:30;;;;;;;1.95;0.40;;;;;;;;;;6290244;28;20048;-72
2021/03/15 11:12:32;;;;;;;2.65;0.35;;;;;;;;;;6288370;28;20083;-72
2021/03/15 11:15:36;;;;;;;3.40;0.95;;;;;;;;;;6288716;28;20127;-72
2021/03/15 11:18:37;;;;;;;2.28;0.45;;;;;;;;;;6290926;28;20044;-74
2021/03/15 11:21:39;;;;;;;1.17;0.50;;;;;;;;;;6290357;28;20158;-72
2021/03/15 11:24:41;;;;;;;1.85;0.40;;;;;;;;;;6287088;28;20037;-82
2021/03/15 11:27:47;;;;;;;1.90;0.80;;;;;;;;;;6282599;28;20159;-71
2021/03/15 11:30:49;;;;;;;2.15;0.60;;;;;;;;;;6267366;28;20068;-72
2021/03/15 11:33:51;;;;;;;5.40;0.68;;;;;;;;;;6275939;28;20053;-71
2021/03/15 11:36:53;;;;;;;1.10;0.68;;;;;;;;;;6277349;28;20076;-71
2021/03/15 11:39:54;;;;;;;3.53;0.55;;;;;;;;;;6278534;28;20459;-73
2021/03/15 11:42:55;;;;;;;3.45;0.70;;;;;;;;;;6283373;28;20036;-71
2021/03/15 11:45:57;;;;;;;1.35;0.50;;;;;;;;;;6279753;28;20047;-72
2021/03/15 11:48:58;;;;;;;4.95;0.60;;;;;;;;;;6272453;28;20047;-70
2021/03/15 11:51:59;;;;;;;1.50;0.65;;;;;;;;;;6281815;28;20171;-70
2021/03/15 11:55:01;;;;;;;4.78;0.70;;;;;;;;;;6283352;28;20131;-71
2021/03/15 11:58:02;;;;;;;3.00;0.73;;;;;;;;;;6284991;28;20549;-70
2021/03/15 12:01:04;;;;;;;5.45;1.00;;;;;;;;;;6286578;28;20181;-73
2021/03/15 12:04:05;;;;;;;9.65;0.77;;;;;;;;;;6280489;28;20052;-70
2021/03/15 12:07:06;;;;;;;2.70;0.60;;;;;;;;;;6276867;28;20048;-73
2021/03/15 12:10:09;;;;;;;1.52;0.50;;;;;;;;;;6281717;28;20151;-74
2021/03/15 12:13:10;;;;;;;1.23;0.60;;;;;;;;;;6280529;28;20044;-72
2021/03/15 12:16:12;;;;;;;1.10;0.52;;;;;;;;;;6285276;28;20483;-71
2021/03/15 12:19:14;;;;;;;3.97;0.73;;;;;;;;;;6282448;28;20110;-72
2021/03/15 12:22:15;;;;;;;3.80;0.50;;;;;;;;;;6283759;28;20076;-71
2021/03/15 12:25:17;;;;;;;9.20;1.80;;;;;;;;;;6284964;28;20049;-71
2021/03/15 12:28:18;;;;;;;1.73;0.40;;;;;;;;;;6281967;28;20040;-71
2021/03/15 12:31:20;;;;;;;3.33;0.50;;;;;;;;;;6281545;28;20377;-71
2021/03/15 12:34:21;;;;;;;3.90;0.65;;;;;;;;;;6283545;28;20040;-71
2021/03/15 12:37:22;;;;;;;2.45;0.63;;;;;;;;;;6280934;28;20507;-71
2021/03/15 12:40:24;;;;;;;4.03;0.82;;;;;;;;;;6283889;28;20052;-75
2021/03/15 12:43:25;;;;;;;6.07;0.70;;;;;;;;;;6281568;28;20053;-72
2021/03/15 12:46:27;;;;;;;2.05;0.60;;;;;;;;;;6284630;28;20045;-71
2021/03/15 12:49:28;;;;;;;2.60;0.50;;;;;;;;;;6281408;28;20093;-71
2021/03/15 12:52:29;;;;;;;3.00;0.70;;;;;;;;;;6286575;28;20044;-73
2021/03/15 12:55:30;;;;;;;4.45;1.33;;;;;;;;;;6288159;28;20049;-70
2021/03/15 12:58:31;;;;;;;2.92;0.43;;;;;;;;;;6286428;28;20515;-70
2021/03/15 13:01:33;;;;;;;2.38;0.68;;;;;;;;;;6293981;28;20131;-70
2021/03/15 13:04:34;;;;;;;2.55;0.52;;;;;;;;;;6291408;28;20044;-72
2021/03/15 13:07:35;;;;;;;2.90;0.40;;;;;;;;;;6292868;28;20090;-70
2021/03/15 13:10:36;;;;;;;2.10;0.40;;;;;;;;;;6292831;28;20133;-69
2021/03/15 13:13:37;;;;;;;2.45;0.55;;;;;;;;;;6288085;28;20067;-68
2021/03/15 13:16:39;;;;;;;1.35;0.43;;;;;;;;;;6286658;28;20402;-71
2021/03/15 13:19:40;;;;;;;0.80;0.40;;;;;;;;;;6291376;28;20164;-70
2021/03/15 13:22:43;;;;;;;0.68;0.38;;;;;;;;;;6293681;28;20158;-70
2021/03/15 13:25:44;;;;;;;0.60;0.37;;;;;;;;;;6295386;28;20063;-70
2021/03/15 13:28:45;;;;;;;0.93;0.40;;;;;;;;;;6294703;28;20209;-74
2021/03/15 13:31:47;;;;;;;1.40;0.30;;;;;;;;;;6289212;28;20103;-70
2021/03/15 13:34:48;;;;;;;1.77;0.50;;;;;;;;;;6291344;28;20577;-71
2021/03/15 13:37:49;;;;;;;2.70;0.30;;;;;;;;;;6296628;28;20127;-73
2021/03/15 13:40:50;;;;;;;2.80;0.73;;;;;;;;;;6292082;28;20117;-70
2021/03/15 13:43:51;;;;;;;4.53;0.50;;;;;;;;;;6288108;28;20087;-70
2021/03/15 13:46:53;;;;;;;1.40;0.30;;;;;;;;;;6292201;28;20075;-72
2021/03/15 13:49:55;;;;;;;2.42;0.20;;;;;;;;;;6285331;28;20175;-81
2021/03/15 13:52:56;;;;;;;2.92;0.30;;;;;;;;;;6294105;28;20044;-78
2021/03/15 13:55:57;;;;;;;3.10;0.30;;;;;;;;;;6290532;28;20167;-81
2021/03/15 13:58:58;;;;;;;1.52;0.40;;;;;;;;;;6293038;28;20101;-71
2021/03/15 14:02:00;;;;;;;2.78;0.30;;;;;;;;;;6290146;28;20071;-69
2021/03/15 14:05:02;;;;;;;1.77;0.20;;;;;;;;;;6289619;28;20169;-72
2021/03/15 14:08:03;;;;;;;1.17;0.30;;;;;;;;;;6286574;28;20506;-69
2021/03/15 14:11:04;;;;;;;4.20;0.65;;;;;;;;;;6283087;28;20135;-70
2021/03/15 14:14:05;;;;;;;1.88;0.30;;;;;;;;;;6283478;28;20052;-69
2021/03/15 14:17:07;;;;;;;1.27;0.20;;;;;;;;;;6287742;28;20045;-71
2021/03/15 14:20:09;;;;;;;3.03;0.52;;;;;;;;;;6285684;28;20135;-74
2021/03/15 14:23:10;;;;;;;0.90;0.38;;;;;;;;;;6284457;28;20055;-71
2021/03/15 14:26:11;;;;;;;3.70;0.30;;;;;;;;;;6279713;28;20041;-71
2021/03/15 14:29:13;;;;;;;1.80;0.22;;;;;;;;;;6282333;28;20132;-72
2021/03/15 14:32:15;;;;;;;2.92;0.75;;;;;;;;;;6281160;28;20400;-72
2021/03/15 14:35:16;;;;;;;3.00;0.65;;;;;;;;;;6281669;28;20109;-73
2021/03/15 14:38:17;;;;;;;2.40;0.60;;;;;;;;;;6279238;28;20091;-72
2021/03/15 14:41:18;;;;;;;2.70;0.38;;;;;;;;;;6276384;28;20052;-73
2021/03/15 14:44:19;;;;;;;4.68;0.43;;;;;;;;;;6276788;28;20181;-71
2021/03/15 14:47:21;;;;;;;3.85;0.75;;;;;;;;;;6278646;28;20131;-75
2021/03/15 14:50:23;;;;;;;0.60;0.20;;;;;;;;;;6282303;28;20036;-72
2021/03/15 14:53:24;;;;;;;2.95;0.90;;;;;;;;;;6277596;28;20118;-71
2021/03/15 14:56:25;;;;;;;7.88;1.27;;;;;;;;;;6281317;28;20125;-72
2021/03/15 14:59:26;;;;;;;6.72;0.77;;;;;;;;;;6281059;28;20179;-74
2021/03/15 15:02:28;;;;;;;17.83;1.10;;;;;;;;;;6287716;28;20131;-72
2021/03/15 15:05:29;;;;;;;1.90;0.37;;;;;;;;;;6281509;28;20051;-77
2021/03/15 15:08:30;;;;;;;0.65;0.28;;;;;;;;;;6281722;28;20466;-73
2021/03/15 15:11:31;;;;;;;0.50;0.30;;;;;;;;;;6282532;28;20047;-73
2021/03/15 15:14:33;;;;;;;9.90;1.33;;;;;;;;;;6279659;28;20470;-70
2021/03/15 15:17:35;;;;;;;0.93;0.30;;;;;;;;;;6282678;28;20127;-73
2021/03/15 15:20:36;;;;;;;2.38;0.43;;;;;;;;;;6281587;28;20147;-74
2021/03/15 15:23:37;;;;;;;3.58;0.40;;;;;;;;;;6281739;28;20068;-72
2021/03/15 15:26:38;;;;;;;1.05;0.50;;;;;;;;;;6285849;28;20178;-72
2021/03/15 15:29:39;;;;;;;0.60;0.25;;;;;;;;;;6288125;28;20052;-76
2021/03/15 15:32:42;;;;;;;2.88;0.80;;;;;;;;;;6289112;28;20136;-73
2021/03/15 15:35:43;;;;;;;10.05;1.20;;;;;;;;;;6286469;28;20067;-72
2021/03/15 15:38:44;;;;;;;4.05;0.43;;;;;;;;;;6289985;28;20047;-72
2021/03/15 15:41:45;;;;;;;1.67;0.25;;;;;;;;;;6287792;28;20734;-74
2021/03/15 15:44:46;;;;;;;1.45;0.30;;;;;;;;;;6286475;28;20048;-73
2021/03/15 15:47:48;;;;;;;2.25;0.45;;;;;;;;;;6287444;28;20687;-72
2021/03/15 15:50:49;;;;;;;2.03;0.50;;;;;;;;;;6284237;28;20143;-72
2021/03/15 15:53:50;;;;;;;2.45;0.43;;;;;;;;;;6281804;28;20159;-72
2021/03/15 15:56:51;;;;;;;0.43;0.40;;;;;;;;;;6284168;28;20052;-76
2021/03/15 15:59:52;;;;;;;5.55;0.60;;;;;;;;;;6290330;28;20064;-70
2021/03/15 16:02:54;;;;;;;2.67;0.50;;;;;;;;;;6287831;28;20214;-71
2021/03/15 16:05:55;;;;;;;2.17;0.80;;;;;;;;;;6295956;28;20494;-74
2021/03/15 16:08:57;;;;;;;6.18;0.60;;;;;;;;;;6294137;28;20123;-71
2021/03/15 16:11:58;;;;;;;3.22;0.57;;;;;;;;;;6292944;28;20064;-72
2021/03/15 16:14:59;;;;;;;5.03;0.75;;;;;;;;;;6292687;28;20155;-70
2021/03/15 16:18:01;;;;;;;3.47;0.50;;;;;;;;;;6292199;28;20139;-70
2021/03/15 16:21:02;;;;;;;1.08;0.52;;;;;;;;;;6291079;28;20139;-71
2021/03/15 16:24:04;;;;;;;12.63;1.23;;;;;;;;;;6290837;28;20384;-75
2021/03/15 16:27:06;;;;;;;9.32;1.02;;;;;;;;;;6292507;28;20068;-71
2021/03/15 16:30:09;;;;;;;8.65;1.42;;;;;;;;;;6287149;28;20041;-69
2021/03/15 16:33:11;;;;;;;4.70;0.57;;;;;;;;;;6292951;28;20131;-73
2021/03/15 16:36:12;;;;;;;21.38;1.27;;;;;;;;;;6292218;28;20139;-72
2021/03/15 16:39:13;;;;;;;17.08;1.48;;;;;;;;;;6295095;28;20123;-69
2021/03/15 16:42:17;;;;;;;2.45;0.60;;;;;;;;;;6289745;28;20380;-71
2021/03/15 16:45:18;;;;;;;0.95;0.30;;;;;;;;;;6291848;28;20481;-72
2021/03/15 16:48:20;;;;;;;8.48;1.15;;;;;;;;;;6292453;28;20439;-74
2021/03/15 16:51:21;;;;;;;4.15;0.75;;;;;;;;;;6287545;28;20140;-74
2021/03/15 16:54:22;;;;;;;22.20;1.83;;;;;;;;;;6286138;28;20131;-71
2021/03/15 16:57:24;;;;;;;4.25;0.57;;;;;;;;;;6285418;28;20128;-71
2021/03/15 17:00:25;;;;;;;8.98;1.20;;;;;;;;;;6285744;28;20060;-72
2021/03/15 17:03:27;;;;;;;3.13;0.60;;;;;;;;;;6286384;28;20159;-75
2021/03/15 17:06:28;;;;;;;4.15;0.80;;;;;;;;;;6287788;28;20133;-72
2021/03/15 17:09:29;;;;;;;1.30;0.43;;;;;;;;;;6284333;28;20127;-73
2021/03/15 17:12:30;;;;;;;42.40;1.90;;;;;;;;;;6285764;28;20159;-72
2021/03/15 17:15:31;;;;;;;7.50;1.15;;;;;;;;;;6283616;28;20055;-73
2021/03/15 17:18:33;;;;;;;8.63;0.70;;;;;;;;;;6281093;28;20045;-71
2021/03/15 17:21:34;;;;;;;1.98;0.50;;;;;;;;;;6282858;28;20072;-72
2021/03/15 17:24:35;;;;;;;2.42;0.60;;;;;;;;;;6289869;28;20049;-71
2021/03/15 17:27:36;;;;;;;6.15;0.70;;;;;;;;;;6286823;28;20452;-71
2021/03/15 17:30:38;;;;;;;1.30;0.40;;;;;;;;;;6286496;28;20135;-73
2021/03/15 17:33:40;;;;;;;6.82;0.70;;;;;;;;;;6288563;28;20100;-72
2021/03/15 17:36:41;;;;;;;3.58;0.70;;;;;;;;;;6280308;28;20137;-72
2021/03/15 17:39:42;;;;;;;2.47;0.45;;;;;;;;;;6280185;28;20144;-72
2021/03/15 17:42:43;;;;;;;2.33;0.70;;;;;;;;;;6279917;28;20063;-74
2021/03/15 17:45:44;;;;;;;5.78;0.73;;;;;;;;;;6284359;28;20037;-72
2021/03/15 17:48:46;;;;;;;1.52;0.80;;;;;;;;;;6280755;28;20068;-74
2021/03/15 17:51:47;;;;;;;20.80;2.00;;;;;;;;;;6281516;28;20056;-72
2021/03/15 17:54:48;;;;;;;8.40;1.33;;;;;;;;;;6280412;28;20135;-71
2021/03/15 17:57:50;;;;;;;8.48;1.10;;;;;;;;;;6280764;28;20067;-72
2021/03/15 18:00:52;;;;;;;5.95;0.95;;;;;;;;;;6277455;28;20041;-71
2021/03/15 18:03:55;;;;;;;2.58;0.93;;;;;;;;;;6286830;28;20048;-71
2021/03/15 18:06:56;;;;;;;6.20;0.90;;;;;;;;;;6291548;28;20802;-72
2021/03/15 18:09:57;;;;;;;3.03;1.00;;;;;;;;;;6289623;28;20044;-73
2021/03/15 18:12:58;;;;;;;4.13;0.90;;;;;;;;;;6291493;28;20143;-71
2021/03/15 18:15:59;;;;;;;5.82;1.10;;;;;;;;;;6289193;28;20078;-71